Pond Inlet, Canada
Current Conditions -  °F | °C
As of 6:00 AM on Friday 24 Oct 2014 (Local Time) from CYIO Reporting Station
Overcast Overcast  
Wind Chill: -5°   Ceiling: 2700
Heat Index: 12°   Visibility: 9mi
Dew Point:   Wind: 17mph
Humidity: 67%   Direction: 270°W
Pressure: 29.95"   Gusts: 25mph
Location:  72.7°N, 78°W
Report Text: CYIO 241000Z AUTO 27015G22KT 9SM BKN027 OVC034 M11/M16 A2995 RMK SLP150
Loading
Personal Weather Stations






























Interactive Weather Map
Tropical Storm Tracking
New forecast layout! Learn more

10-Day Weather Forecast

Advertisements
Track Severe Weather on mobile